Aqua, Pennsylvania
Current Conditions -  °F | °C
As of 9:53 PM on Saturday 25 Oct 2014 (Local Time) from KHGR Reporting Station
Clear Clear  
Wind Chill: 63°   Ceiling: Unl
Heat Index: 63°   Visibility: 10mi
Dew Point: 47°   Wind: 8mph
Humidity: 56%   Direction: 250°WSW
Pressure: 29.7"   Gusts: NA
Location:  39.9438°N, 77.6827°W
Report Text: KHGR 260153Z AUTO 25007KT 10SM CLR 17/08 A2970 RMK AO2 SLP066 T01720083
Loading
Personal Weather Stations






























Interactive Weather Map
Tropical Storm Tracking
New forecast layout! Learn more

10-Day Weather Forecast

Advertisements
Track Severe Weather on mobile